Time;durP1;ratioP1;P1;durP2;ratioP2;P2;SDS_P1;SDS_P2;PMS_P1;PMS_P2;Temp;Humidity;BMP_temperature;BMP_pressure;BME280_temperature;BME280_humidity;BME280_pressure;Samples;Min_cycle;Max_cycle;Signal;HPM_P1;HPM_P2
2022/04/09 00:00:13;;;;;;;4.18;1.98;;;2.30;99.90;;;;;;4989935;28;20030;-50
2022/04/09 00:02:39;;;;;;;4.97;2.03;;;2.30;99.90;;;;;;4989270;28;20057;-50
2022/04/09 00:05:05;;;;;;;5.75;1.95;;;2.30;99.90;;;;;;4990225;28;20062;-52
2022/04/09 00:07:31;;;;;;;4.15;2.08;;;2.30;99.90;;;;;;4989221;28;20125;-49
2022/04/09 00:09:56;;;;;;;3.33;1.70;;;2.20;99.90;;;;;;4989924;28;20599;-50
2022/04/09 00:12:22;;;;;;;6.32;1.65;;;2.20;99.90;;;;;;4989430;28;20030;-50
2022/04/09 00:14:48;;;;;;;3.47;1.80;;;2.20;99.90;;;;;;4988351;28;20516;-54
2022/04/09 00:17:13;;;;;;;3.05;1.83;;;2.10;99.90;;;;;;4993102;28;20092;-52
2022/04/09 00:19:39;;;;;;;3.55;1.70;;;2.10;99.90;;;;;;4993384;28;20095;-54
2022/04/09 00:22:04;;;;;;;6.15;1.98;;;2.10;99.90;;;;;;4992755;28;20559;-52
2022/04/09 00:24:30;;;;;;;5.32;1.50;;;2.10;99.90;;;;;;4993425;28;20037;-50
2022/04/09 00:26:55;;;;;;;4.57;2.20;;;2.00;99.90;;;;;;4992817;28;20092;-50
2022/04/09 00:29:21;;;;;;;3.70;1.85;;;2.00;99.90;;;;;;4993431;28;20120;-52
2022/04/09 00:31:47;;;;;;;8.20;2.00;;;2.00;99.90;;;;;;4989999;28;20038;-49
2022/04/09 00:34:13;;;;;;;3.97;1.77;;;2.00;99.90;;;;;;4993140;28;20042;-52
2022/04/09 00:36:38;;;;;;;4.20;2.10;;;2.00;99.90;;;;;;4991990;28;20090;-52
2022/04/09 00:39:04;;;;;;;3.72;1.55;;;1.90;99.90;;;;;;4993547;28;20026;-51
2022/04/09 00:41:30;;;;;;;4.82;1.80;;;1.90;99.90;;;;;;4992960;28;20544;-47
2022/04/09 00:43:55;;;;;;;9.48;2.00;;;1.90;99.90;;;;;;4993200;28;20096;-49
2022/04/09 00:46:21;;;;;;;3.58;1.35;;;1.90;99.90;;;;;;4993088;28;20062;-51
2022/04/09 00:48:47;;;;;;;5.28;1.88;;;1.90;99.90;;;;;;4992796;28;20031;-53
2022/04/09 00:51:12;;;;;;;7.55;2.20;;;1.80;99.90;;;;;;4992639;28;20036;-51
2022/04/09 00:53:42;;;;;;;3.80;1.70;;;1.80;99.90;;;;;;4992570;28;20030;-49
2022/04/09 00:56:13;;;;;;;3.95;1.80;;;1.80;99.90;;;;;;4992582;28;20405;-50
2022/04/09 00:58:43;;;;;;;2.63;1.15;;;1.80;99.90;;;;;;4991220;28;20054;-52
2022/04/09 01:01:11;;;;;;;5.25;1.38;;;1.80;99.90;;;;;;4990586;28;20081;-55
2022/04/09 01:03:38;;;;;;;2.03;1.67;;;1.80;99.90;;;;;;4990502;28;20034;-53
2022/04/09 01:06:06;;;;;;;4.28;1.40;;;1.80;99.90;;;;;;4990875;28;20030;-54
2022/04/09 01:08:31;;;;;;;2.67;1.58;;;1.80;99.90;;;;;;4992439;28;20022;-53
2022/04/09 01:10:57;;;;;;;10.30;2.00;;;1.70;99.90;;;;;;4992406;28;20065;-52
2022/04/09 01:13:24;;;;;;;3.20;1.20;;;1.70;99.90;;;;;;4991949;28;20066;-50
2022/04/09 01:15:49;;;;;;;3.15;1.13;;;1.80;99.90;;;;;;4992495;28;20026;-53
2022/04/09 01:18:15;;;;;;;4.70;1.80;;;1.80;99.90;;;;;;4992617;28;20365;-51
2022/04/09 01:20:41;;;;;;;5.50;1.55;;;1.80;99.90;;;;;;4992660;28;20018;-52
2022/04/09 01:23:06;;;;;;;4.93;1.77;;;1.80;99.90;;;;;;4990916;28;20034;-51
2022/04/09 01:25:32;;;;;;;6.15;2.00;;;1.80;99.90;;;;;;4992105;28;20034;-52
2022/04/09 01:27:58;;;;;;;3.67;1.95;;;1.80;99.90;;;;;;4991092;28;20030;-52
2022/04/09 01:30:24;;;;;;;5.82;1.83;;;1.80;99.90;;;;;;4991852;28;20030;-50
2022/04/09 01:32:49;;;;;;;3.67;1.80;;;1.80;99.90;;;;;;4990471;28;20369;-48
2022/04/09 01:35:15;;;;;;;2.40;1.45;;;1.80;99.90;;;;;;4992012;28;20057;-49
2022/04/09 01:37:41;;;;;;;5.97;1.50;;;1.80;99.90;;;;;;4992046;28;20485;-50
2022/04/09 01:40:07;;;;;;;7.22;1.55;;;1.80;99.90;;;;;;4991619;28;20030;-49
2022/04/09 01:42:32;;;;;;;5.18;1.65;;;1.80;99.90;;;;;;4991791;28;20028;-52
2022/04/09 01:44:58;;;;;;;4.00;1.20;;;1.80;99.90;;;;;;4991913;28;20027;-53
2022/04/09 01:47:24;;;;;;;3.13;1.50;;;1.70;99.90;;;;;;4992029;28;20547;-52
2022/04/09 01:49:49;;;;;;;6.15;2.33;;;1.70;99.90;;;;;;4991643;28;20105;-52
2022/04/09 01:52:15;;;;;;;8.93;1.83;;;1.70;99.90;;;;;;4990927;28;20089;-49
2022/04/09 01:54:40;;;;;;;2.55;1.27;;;1.70;99.90;;;;;;4991698;28;20031;-50
2022/04/09 01:57:06;;;;;;;2.17;1.17;;;1.60;99.90;;;;;;4991421;28;20038;-49
2022/04/09 01:59:31;;;;;;;2.83;1.33;;;1.60;99.90;;;;;;4992042;28;20033;-49
2022/04/09 02:01:57;;;;;;;2.28;1.58;;;1.60;99.90;;;;;;4990951;28;20105;-51
2022/04/09 02:04:23;;;;;;;4.20;1.70;;;1.50;99.90;;;;;;4991278;28;20122;-50
2022/04/09 02:06:50;;;;;;;1.65;1.30;;;1.50;99.90;;;;;;4991200;28;20026;-49
2022/04/09 02:09:16;;;;;;;4.03;1.60;;;1.50;99.90;;;;;;4991307;28;20117;-50
2022/04/09 02:11:42;;;;;;;1.92;1.50;;;1.50;99.90;;;;;;4991482;28;20094;-49
2022/04/09 02:14:09;;;;;;;4.35;2.08;;;1.40;99.90;;;;;;4991348;28;20034;-50
2022/04/09 02:16:35;;;;;;;3.35;1.70;;;1.40;99.90;;;;;;4990719;28;20030;-47
2022/04/09 02:19:02;;;;;;;3.88;1.52;;;1.40;99.90;;;;;;4991774;28;20018;-50
2022/04/09 02:21:27;;;;;;;6.80;1.70;;;1.40;99.90;;;;;;4991131;28;20022;-49
2022/04/09 02:23:53;;;;;;;5.80;1.60;;;1.40;99.90;;;;;;4980823;28;20026;-50
2022/04/09 02:26:18;;;;;;;5.22;1.42;;;1.40;99.90;;;;;;4994916;28;20038;-47
2022/04/09 02:28:47;;;;;;;6.93;1.63;;;1.40;99.90;;;;;;4991072;28;20041;-47
2022/04/09 02:31:15;;;;;;;4.43;1.75;;;1.40;99.90;;;;;;4990624;28;20117;-47
2022/04/09 02:33:41;;;;;;;4.72;1.38;;;1.40;99.90;;;;;;4991006;28;20140;-49
2022/04/09 02:36:10;;;;;;;2.03;1.25;;;1.40;99.90;;;;;;4990933;28;20030;-49
2022/04/09 02:38:36;;;;;;;4.22;1.35;;;1.40;99.90;;;;;;4990913;28;20030;-48
2022/04/09 02:41:01;;;;;;;7.07;1.75;;;1.30;99.90;;;;;;4990880;28;20023;-50
2022/04/09 02:43:27;;;;;;;4.38;1.73;;;1.30;99.90;;;;;;4990488;28;20106;-50
2022/04/09 02:45:52;;;;;;;3.42;1.52;;;1.30;99.90;;;;;;4990835;28;20481;-47
2022/04/09 02:48:19;;;;;;;3.30;1.58;;;1.30;99.90;;;;;;4990973;28;20023;-48
2022/04/09 02:50:44;;;;;;;4.65;1.60;;;1.30;99.90;;;;;;4989223;28;20026;-48
2022/04/09 02:53:11;;;;;;;3.85;1.50;;;1.30;99.90;;;;;;4990595;28;20030;-48
2022/04/09 02:55:37;;;;;;;3.78;1.83;;;1.30;99.90;;;;;;4990393;28;20029;-47
2022/04/09 02:58:02;;;;;;;9.05;1.73;;;1.20;99.90;;;;;;4990012;28;20034;-47
2022/04/09 03:00:28;;;;;;;5.97;1.60;;;1.20;99.90;;;;;;4988941;28;20022;-47
2022/04/09 03:02:53;;;;;;;3.78;1.65;;;1.30;99.90;;;;;;4990321;28;20022;-49
2022/04/09 03:05:19;;;;;;;6.25;1.65;;;1.30;99.90;;;;;;4990417;28;20081;-47
2022/04/09 03:07:45;;;;;;;5.15;1.85;;;1.20;99.90;;;;;;4990318;28;20038;-45
2022/04/09 03:10:10;;;;;;;2.63;1.70;;;1.30;99.90;;;;;;4990244;28;20041;-48
2022/04/09 03:12:36;;;;;;;2.80;2.10;;;1.20;99.90;;;;;;4990127;28;20281;-50
2022/04/09 03:15:02;;;;;;;7.70;2.25;;;1.20;99.90;;;;;;4990507;28;20034;-51
2022/04/09 03:17:27;;;;;;;4.05;2.10;;;1.20;99.90;;;;;;4990308;28;20485;-47
2022/04/09 03:19:53;;;;;;;7.00;1.73;;;1.20;99.90;;;;;;4990369;28;20027;-49
2022/04/09 03:22:18;;;;;;;8.55;2.30;;;1.20;99.90;;;;;;4990346;28;20143;-54
2022/04/09 03:24:44;;;;;;;4.85;1.98;;;1.20;99.90;;;;;;4989869;28;20497;-51
2022/04/09 03:27:09;;;;;;;3.15;2.20;;;1.20;99.90;;;;;;4990009;28;20040;-49
2022/04/09 03:29:35;;;;;;;3.25;1.42;;;1.10;99.90;;;;;;4988961;28;20374;-46
2022/04/09 03:32:01;;;;;;;4.28;2.17;;;1.10;99.90;;;;;;4989879;28;20512;-49
2022/04/09 03:34:27;;;;;;;1.70;1.50;;;1.10;99.90;;;;;;4990008;28;20022;-48
2022/04/09 03:36:53;;;;;;;2.80;1.65;;;1.10;99.90;;;;;;4990197;28;20049;-53
2022/04/09 03:39:19;;;;;;;2.53;1.92;;;1.10;99.90;;;;;;4990094;28;20073;-46
2022/04/09 03:41:44;;;;;;;5.30;1.98;;;1.10;99.90;;;;;;4990020;28;20089;-47
2022/04/09 03:44:10;;;;;;;3.03;1.90;;;1.10;99.90;;;;;;4989896;28;20027;-47
2022/04/09 03:46:36;;;;;;;6.38;2.42;;;1.10;99.90;;;;;;4989893;28;20092;-46
2022/04/09 03:49:02;;;;;;;3.55;2.03;;;1.10;99.90;;;;;;4990224;28;20031;-50
2022/04/09 03:51:27;;;;;;;3.47;1.67;;;1.10;99.90;;;;;;4993284;28;20204;-47
2022/04/09 03:53:53;;;;;;;4.90;2.28;;;1.10;99.90;;;;;;4994166;28;20066;-52
2022/04/09 03:56:18;;;;;;;2.35;1.63;;;1.00;99.90;;;;;;4993101;28;20057;-47
2022/04/09 03:58:45;;;;;;;6.63;2.10;;;1.00;99.90;;;;;;4993731;28;20084;-46
2022/04/09 04:01:10;;;;;;;5.22;2.75;;;1.00;99.90;;;;;;4993541;28;20037;-47
2022/04/09 04:03:36;;;;;;;5.00;2.47;;;1.00;99.90;;;;;;4993633;28;20108;-46
2022/04/09 04:06:02;;;;;;;9.05;3.28;;;1.00;99.90;;;;;;4993333;28;20085;-46
2022/04/09 04:08:28;;;;;;;5.82;2.60;;;1.00;99.90;;;;;;4993845;28;20034;-49
2022/04/09 04:10:53;;;;;;;6.18;3.38;;;1.00;99.90;;;;;;4993712;28;20034;-48
2022/04/09 04:13:19;;;;;;;10.35;4.43;;;0.90;99.90;;;;;;4993097;28;20034;-46
2022/04/09 04:15:45;;;;;;;9.82;4.85;;;1.00;99.90;;;;;;4992880;28;20037;-46
2022/04/09 04:18:11;;;;;;;7.30;4.40;;;1.00;99.90;;;;;;4993518;28;20026;-45
2022/04/09 04:20:37;;;;;;;7.20;4.30;;;1.00;99.90;;;;;;4993409;28;20595;-46
2022/04/09 04:23:03;;;;;;;7.90;4.20;;;1.00;99.90;;;;;;4993156;28;20037;-46
2022/04/09 04:25:29;;;;;;;8.00;3.17;;;1.00;99.90;;;;;;4993239;28;20054;-45
2022/04/09 04:27:55;;;;;;;7.50;2.95;;;1.00;99.90;;;;;;4993439;28;20528;-46
2022/04/09 04:30:20;;;;;;;5.95;3.00;;;1.00;99.90;;;;;;4993332;28;20041;-47
2022/04/09 04:32:46;;;;;;;6.93;2.40;;;1.00;99.90;;;;;;4993392;28;20676;-46
2022/04/09 04:35:12;;;;;;;5.47;2.80;;;1.00;99.90;;;;;;4992427;28;20116;-48
2022/04/09 04:37:38;;;;;;;5.78;2.63;;;0.90;99.90;;;;;;4993075;28;20062;-46
2022/04/09 04:40:05;;;;;;;10.82;2.75;;;1.00;99.90;;;;;;4992961;28;20026;-47
2022/04/09 04:42:31;;;;;;;6.97;2.28;;;1.00;99.90;;;;;;4992681;28;20424;-45
2022/04/09 04:44:57;;;;;;;6.97;2.78;;;1.00;99.90;;;;;;4992835;28;20030;-46
2022/04/09 04:47:22;;;;;;;7.82;2.28;;;1.00;99.90;;;;;;4992714;28;20022;-46
2022/04/09 04:49:48;;;;;;;6.47;2.05;;;1.00;99.90;;;;;;4992927;28;20042;-46
2022/04/09 04:52:13;;;;;;;6.13;2.30;;;1.00;99.90;;;;;;4992959;28;20027;-46
2022/04/09 04:54:39;;;;;;;4.13;2.20;;;0.90;99.90;;;;;;4992882;28;20660;-44
2022/04/09 04:57:05;;;;;;;4.15;2.08;;;0.90;99.90;;;;;;4992360;28;20033;-46
2022/04/09 04:59:30;;;;;;;3.40;2.20;;;0.90;99.90;;;;;;4991864;28;20042;-47
2022/04/09 05:01:56;;;;;;;4.72;1.92;;;0.90;99.90;;;;;;4992047;28;20057;-48
2022/04/09 05:04:21;;;;;;;9.45;2.35;;;0.90;99.90;;;;;;4992352;28;20438;-45
2022/04/09 05:06:49;;;;;;;9.13;2.47;;;0.90;99.90;;;;;;4992277;28;20035;-47
2022/04/09 05:09:14;;;;;;;6.97;2.10;;;0.90;99.90;;;;;;4992788;28;20031;-47
2022/04/09 05:11:40;;;;;;;7.10;2.33;;;1.00;99.90;;;;;;4992501;28;20076;-46
2022/04/09 05:14:06;;;;;;;10.90;2.80;;;1.00;99.90;;;;;;4992057;28;20026;-46
2022/04/09 05:16:31;;;;;;;9.07;2.78;;;1.10;99.90;;;;;;4991967;28;20448;-47
2022/04/09 05:18:57;;;;;;;6.03;2.40;;;1.20;99.90;;;;;;4992535;28;20034;-49
2022/04/09 05:21:22;;;;;;;8.32;2.63;;;1.20;99.90;;;;;;4992353;28;20077;-47
2022/04/09 05:23:48;;;;;;;10.50;3.00;;;1.30;99.90;;;;;;4992164;28;20030;-52
2022/04/09 05:26:14;;;;;;;9.80;3.05;;;1.30;99.90;;;;;;4990398;28;20406;-49
2022/04/09 05:28:39;;;;;;;6.05;2.40;;;1.40;99.90;;;;;;4992079;28;20026;-49
2022/04/09 05:31:05;;;;;;;10.18;3.05;;;1.40;99.90;;;;;;4992050;28;20062;-48
2022/04/09 05:33:30;;;;;;;5.38;2.55;;;1.50;99.90;;;;;;4991784;28;20529;-49
2022/04/09 05:35:56;;;;;;;7.22;2.95;;;1.50;99.90;;;;;;4992060;28;20088;-46
2022/04/09 05:38:22;;;;;;;9.35;3.15;;;1.50;99.90;;;;;;4992065;28;20022;-48
2022/04/09 05:40:48;;;;;;;7.22;2.67;;;1.60;99.90;;;;;;4991403;28;20033;-48
2022/04/09 05:43:14;;;;;;;6.03;2.78;;;1.70;99.90;;;;;;4992293;28;20022;-49
2022/04/09 05:45:39;;;;;;;7.35;3.28;;;1.70;99.90;;;;;;4992208;28;20088;-47
2022/04/09 05:48:05;;;;;;;8.95;2.80;;;1.80;99.90;;;;;;4992025;28;20326;-47
2022/04/09 05:50:31;;;;;;;13.02;4.38;;;1.80;99.90;;;;;;4992031;28;20034;-47
2022/04/09 05:52:56;;;;;;;10.52;3.53;;;1.90;99.90;;;;;;4991421;28;20081;-47
2022/04/09 05:55:22;;;;;;;14.20;2.92;;;2.00;99.90;;;;;;4991516;28;20554;-48
2022/04/09 05:57:47;;;;;;;9.70;3.15;;;2.00;99.90;;;;;;4991385;28;20400;-46
2022/04/09 06:00:16;;;;;;;6.55;2.95;;;2.10;99.90;;;;;;4991642;28;20065;-49
2022/04/09 06:02:43;;;;;;;6.28;2.95;;;2.20;99.90;;;;;;4991084;28;20021;-51
2022/04/09 06:05:09;;;;;;;6.13;2.95;;;2.20;99.90;;;;;;4991368;28;20029;-49
2022/04/09 06:07:35;;;;;;;9.82;3.15;;;2.20;99.90;;;;;;4991234;28;20034;-49
2022/04/09 06:10:03;;;;;;;8.80;2.67;;;2.30;99.90;;;;;;4990046;28;20492;-50
2022/04/09 06:12:29;;;;;;;9.80;2.60;;;2.20;99.90;;;;;;4990413;28;20028;-52
2022/04/09 06:14:55;;;;;;;5.72;2.28;;;2.20;99.90;;;;;;4991070;28;20030;-53
2022/04/09 06:17:24;;;;;;;8.40;2.80;;;2.10;99.90;;;;;;4990854;28;20045;-53
2022/04/09 06:19:50;;;;;;;4.05;2.03;;;2.00;99.90;;;;;;4991411;28;20030;-51
2022/04/09 06:22:16;;;;;;;9.55;3.00;;;1.90;99.90;;;;;;4991292;28;20523;-53
2022/04/09 06:24:41;;;;;;;7.43;2.70;;;1.80;99.90;;;;;;4991184;28;20023;-51
2022/04/09 06:27:07;;;;;;;5.28;2.80;;;1.90;99.90;;;;;;4991411;28;20488;-51
2022/04/09 06:29:33;;;;;;;10.70;3.03;;;1.80;99.90;;;;;;4991348;28;20026;-56
2022/04/09 06:31:58;;;;;;;7.10;2.47;;;1.80;99.90;;;;;;4991075;28;20026;-52
2022/04/09 06:34:24;;;;;;;10.05;2.47;;;1.80;99.90;;;;;;4991231;28;20030;-51
2022/04/09 06:36:49;;;;;;;5.05;2.58;;;1.80;99.90;;;;;;4990836;28;20030;-54
2022/04/09 06:39:16;;;;;;;5.05;2.70;;;1.80;99.90;;;;;;4990965;28;20077;-53
2022/04/09 06:41:43;;;;;;;14.77;3.60;;;1.90;99.90;;;;;;4990471;28;20053;-54
2022/04/09 06:44:11;;;;;;;5.07;2.67;;;2.00;99.90;;;;;;4990726;28;20109;-54
2022/04/09 06:46:36;;;;;;;10.90;3.90;;;2.00;99.90;;;;;;4980855;28;20447;-56
2022/04/09 06:49:02;;;;;;;8.38;3.80;;;2.20;99.90;;;;;;4991038;28;20030;-55
2022/04/09 06:51:28;;;;;;;6.53;3.80;;;2.30;99.90;;;;;;4990623;28;20034;-53
2022/04/09 06:53:53;;;;;;;8.60;4.07;;;2.50;99.90;;;;;;4990434;28;20039;-50
2022/04/09 06:56:19;;;;;;;9.95;3.85;;;2.60;99.90;;;;;;4990351;28;20116;-53
2022/04/09 06:58:45;;;;;;;7.07;3.53;;;2.70;99.90;;;;;;4991027;28;20287;-54
2022/04/09 07:01:10;;;;;;;10.90;4.07;;;2.70;99.90;;;;;;4988423;28;20030;-51
2022/04/09 07:03:36;;;;;;;5.47;3.33;;;2.80;99.90;;;;;;4990696;28;20515;-53
2022/04/09 07:06:01;;;;;;;10.35;3.38;;;2.90;99.90;;;;;;4990414;28;20520;-53
2022/04/09 07:08:27;;;;;;;6.38;3.22;;;3.00;99.90;;;;;;4990491;28;20032;-56
2022/04/09 07:10:52;;;;;;;11.00;3.17;;;3.10;99.90;;;;;;4990793;28;20420;-55
2022/04/09 07:13:18;;;;;;;8.75;3.25;;;3.10;99.90;;;;;;4989938;28;20041;-56
2022/04/09 07:15:43;;;;;;;5.90;2.80;;;3.10;99.90;;;;;;4990014;28;20034;-53
2022/04/09 07:18:09;;;;;;;13.73;3.03;;;3.10;99.90;;;;;;4990263;28;20037;-50
2022/04/09 07:20:36;;;;;;;11.38;3.03;;;3.20;99.90;;;;;;4990279;28;20030;-55
2022/04/09 07:23:02;;;;;;;6.40;2.72;;;3.20;99.90;;;;;;4989883;28;20026;-52
2022/04/09 07:25:29;;;;;;;7.18;3.13;;;3.30;99.90;;;;;;4990117;28;20089;-54
2022/04/09 07:27:55;;;;;;;8.05;2.20;;;3.30;99.90;;;;;;4990200;28;20058;-51
2022/04/09 07:30:21;;;;;;;8.73;2.90;;;3.30;99.90;;;;;;4976155;28;20058;-56
2022/04/09 07:32:47;;;;;;;6.53;2.78;;;3.30;99.90;;;;;;4989583;28;20064;-55
2022/04/09 07:35:14;;;;;;;9.00;2.75;;;3.50;99.90;;;;;;4990448;28;20085;-54
2022/04/09 07:37:45;;;;;;;5.30;1.67;;;3.60;99.90;;;;;;4989711;28;20049;-54
2022/04/09 07:40:13;;;;;;;5.70;2.53;;;3.90;99.90;;;;;;4990096;28;20037;-56
2022/04/09 07:42:40;;;;;;;5.68;1.88;;;3.90;99.90;;;;;;4990387;28;20441;-54
2022/04/09 07:45:07;;;;;;;6.10;1.80;;;4.10;99.90;;;;;;4990318;28;20054;-56
2022/04/09 07:47:33;;;;;;;8.27;2.08;;;4.20;99.90;;;;;;4990228;28;20030;-53
2022/04/09 07:50:00;;;;;;;6.93;3.20;;;4.20;99.90;;;;;;4989719;28;20035;-53
2022/04/09 07:52:26;;;;;;;3.95;2.28;;;4.30;99.90;;;;;;4988879;28;20027;-51
2022/04/09 07:54:52;;;;;;;7.50;2.17;;;4.50;99.90;;;;;;4989849;28;20030;-55
2022/04/09 07:57:18;;;;;;;2.63;2.03;;;4.60;99.90;;;;;;4989481;28;20552;-54
2022/04/09 07:59:44;;;;;;;8.82;2.53;;;4.70;99.90;;;;;;4987983;28;20709;-54
2022/04/09 08:02:09;;;;;;;6.43;1.80;;;4.90;99.90;;;;;;4989730;28;20022;-54
2022/04/09 08:04:35;;;;;;;5.43;2.00;;;5.10;99.90;;;;;;4989786;28;20112;-54
2022/04/09 08:07:00;;;;;;;4.55;2.17;;;5.30;99.90;;;;;;4989759;28;20042;-55
2022/04/09 08:09:26;;;;;;;9.27;2.17;;;5.30;99.90;;;;;;4989963;28;20022;-55
2022/04/09 08:11:53;;;;;;;5.93;1.77;;;5.40;99.90;;;;;;4989899;28;20067;-53
2022/04/09 08:14:18;;;;;;;5.30;1.60;;;5.30;99.90;;;;;;4989928;28;20027;-53
2022/04/09 08:16:44;;;;;;;7.65;1.98;;;5.20;99.90;;;;;;4989658;28;20041;-53
2022/04/09 08:19:09;;;;;;;3.35;1.52;;;5.20;99.90;;;;;;4990148;28;20461;-51
2022/04/09 08:21:35;;;;;;;4.32;1.75;;;5.20;99.90;;;;;;4990372;28;20034;-56
2022/04/09 08:24:00;;;;;;;6.03;1.83;;;5.20;99.90;;;;;;4989195;28;20033;-55
2022/04/09 08:26:26;;;;;;;5.57;1.98;;;5.30;99.90;;;;;;4989761;28;20033;-52
2022/04/09 08:28:51;;;;;;;7.53;2.03;;;5.30;99.90;;;;;;4989489;28;20065;-54
2022/04/09 08:31:17;;;;;;;4.47;1.60;;;5.30;99.90;;;;;;4989383;28;20026;-57
2022/04/09 08:33:43;;;;;;;7.28;1.67;;;5.30;99.90;;;;;;4989385;28;20030;-53
2022/04/09 08:36:09;;;;;;;6.90;1.95;;;5.20;99.90;;;;;;4989325;28;20448;-54
2022/04/09 08:38:34;;;;;;;2.60;1.20;;;5.10;99.90;;;;;;4991949;28;20026;-55
2022/04/09 08:41:03;;;;;;;6.82;1.75;;;5.00;99.90;;;;;;4992894;28;20125;-54
2022/04/09 08:43:32;;;;;;;9.27;1.70;;;5.00;99.90;;;;;;4992908;28;20026;-51
2022/04/09 08:46:02;;;;;;;4.13;1.35;;;4.90;99.90;;;;;;4992535;28;20130;-55
2022/04/09 08:48:28;;;;;;;4.93;1.70;;;4.90;99.90;;;;;;4992885;28;20033;-53
2022/04/09 08:50:54;;;;;;;4.82;1.40;;;5.00;99.90;;;;;;4992965;28;20030;-56
2022/04/09 08:53:20;;;;;;;5.45;1.60;;;5.00;99.90;;;;;;4992823;28;20023;-55
2022/04/09 08:55:48;;;;;;;5.68;1.70;;;5.10;99.90;;;;;;4992943;28;20337;-54
2022/04/09 08:58:14;;;;;;;3.53;1.30;;;5.10;99.90;;;;;;4993331;28;20423;-51
2022/04/09 09:00:40;;;;;;;6.32;1.17;;;5.30;99.90;;;;;;4992573;28;20018;-54
2022/04/09 09:03:10;;;;;;;4.75;1.50;;;5.50;99.90;;;;;;4993075;28;20023;-55
2022/04/09 09:05:45;;;;;;;5.30;1.63;;;5.70;99.90;;;;;;4993107;28;20030;-54
2022/04/09 09:08:11;;;;;;;5.53;1.65;;;5.90;99.90;;;;;;4992983;28;20467;-55
2022/04/09 09:10:38;;;;;;;8.90;1.27;;;5.90;99.90;;;;;;4992660;28;20040;-54
2022/04/09 09:13:08;;;;;;;5.53;1.33;;;6.00;99.90;;;;;;4992307;28;20102;-56
2022/04/09 09:15:55;;;;;;;7.07;2.05;;;6.00;99.90;;;;;;4992409;28;20026;-52
2022/04/09 09:18:24;;;;;;;;;;;6.00;99.90;;;;;;4992845;28;20034;-53
2022/04/09 09:20:56;;;;;;;8.23;1.77;;;6.00;99.90;;;;;;4992580;28;19955;-53
2022/04/09 09:23:23;;;;;;;7.15;1.67;;;6.00;99.90;;;;;;4992276;28;20432;-51
2022/04/09 09:25:50;;;;;;;4.03;1.73;;;6.10;99.90;;;;;;4992512;28;20094;-54
2022/04/09 09:28:26;;;;;;;8.38;2.38;;;6.00;99.90;;;;;;4992801;28;20037;-51
2022/04/09 09:30:52;;;;;;;4.05;1.40;;;5.90;99.90;;;;;;4992511;28;20070;-55
2022/04/09 09:33:18;;;;;;;7.03;1.73;;;5.90;99.90;;;;;;4992284;28;20038;-54
2022/04/09 09:35:48;;;;;;;2.88;1.70;;;5.90;99.90;;;;;;4992758;28;20763;-54
2022/04/09 09:38:20;;;;;;;10.25;2.53;;;5.90;99.90;;;;;;4992319;28;20041;-55
2022/04/09 09:40:46;;;;;;;5.15;1.77;;;5.90;99.90;;;;;;4992701;28;20624;-56
2022/04/09 09:43:17;;;;;;;5.88;1.40;;;5.70;99.90;;;;;;4991950;28;20054;-55
2022/04/09 09:45:42;;;;;;;6.45;1.55;;;5.60;99.90;;;;;;4991969;28;20026;-56
2022/04/09 09:48:25;;;;;;;2.53;1.52;;;5.50;99.90;;;;;;4990755;28;20110;-55
2022/04/09 09:50:52;;;;;;;9.32;1.20;;;5.60;99.90;;;;;;4991896;28;20030;-55
2022/04/09 09:53:34;;;;;;;3.38;1.05;;;5.70;99.90;;;;;;4991743;28;20122;-56
2022/04/09 09:56:01;;;;;;;7.13;1.67;;;5.90;99.90;;;;;;4992120;28;20045;-54
2022/04/09 09:58:29;;;;;;;5.70;2.00;;;6.20;99.90;;;;;;4991793;28;20373;-55
2022/04/09 10:00:59;;;;;;;7.22;1.10;;;6.40;99.90;;;;;;4991975;28;20026;-55
2022/04/09 10:03:25;;;;;;;4.60;1.60;;;6.60;99.90;;;;;;4991470;28;20031;-56
2022/04/09 10:05:51;;;;;;;5.65;1.55;;;6.90;99.90;;;;;;4991823;28;20036;-55
2022/04/09 10:08:20;;;;;;;3.45;1.02;;;7.00;99.90;;;;;;4991604;28;20026;-53
2022/04/09 10:10:50;;;;;;;4.97;1.30;;;7.00;99.90;;;;;;4991790;28;20023;-53
2022/04/09 10:13:21;;;;;;;5.57;1.08;;;7.10;99.90;;;;;;4991447;28;20108;-54
2022/04/09 10:15:50;;;;;;;6.38;1.60;;;7.20;99.90;;;;;;4991878;28;20030;-55
2022/04/09 10:18:23;;;;;;;9.43;1.70;;;7.40;99.90;;;;;;4991140;28;20030;-55
2022/04/09 10:20:59;;;;;;;3.25;0.98;;;7.30;99.90;;;;;;4991459;28;20030;-54
2022/04/09 10:23:27;;;;;;;2.38;1.15;;;7.00;99.90;;;;;;4990933;28;20504;-55
2022/04/09 10:25:53;;;;;;;3.13;1.30;;;6.50;99.90;;;;;;4991576;28;20022;-58
2022/04/09 10:28:36;;;;;;;5.25;1.95;;;6.30;99.90;;;;;;4990733;28;20104;-54
2022/04/09 10:31:21;;;;;;;4.55;0.80;;;6.20;99.90;;;;;;4991346;28;20041;-53
2022/04/09 10:33:55;;;;;;;1.70;0.90;;;6.00;99.90;;;;;;4990855;28;20469;-50
2022/04/09 10:36:43;;;;;;;2.50;0.75;;;5.90;99.90;;;;;;4990913;28;20053;-55
2022/04/09 10:39:39;;;;;;;1.55;0.55;;;6.00;99.90;;;;;;4991018;28;20030;-53
2022/04/09 10:42:09;;;;;;;2.88;1.20;;;5.90;99.90;;;;;;4990185;28;20057;-54
2022/04/09 10:44:44;;;;;;;3.95;1.13;;;5.90;99.90;;;;;;4990493;28;20033;-54
2022/04/09 10:47:14;;;;;;;4.30;2.08;;;5.90;99.90;;;;;;4990677;28;20568;-54
2022/04/09 10:49:59;;;;;;;2.63;0.93;;;6.10;99.90;;;;;;4990572;28;20413;-50
2022/04/09 10:52:32;;;;;;;5.97;1.40;;;6.40;99.90;;;;;;4991184;28;20058;-51
2022/04/09 10:55:09;;;;;;;8.10;1.85;;;6.70;99.90;;;;;;4990348;28;20028;-55
2022/04/09 10:57:49;;;;;;;8.50;1.40;;;7.00;99.90;;;;;;4978196;28;20113;-51
2022/04/09 11:00:23;;;;;;;3.38;1.23;;;7.20;99.90;;;;;;4976362;28;20089;-53
2022/04/09 11:03:04;;;;;;;6.38;1.35;;;7.40;99.90;;;;;;4983084;28;20505;-53
2022/04/09 11:05:29;;;;;;;6.07;1.42;;;7.40;99.90;;;;;;4986565;28;20045;-52
2022/04/09 11:08:09;;;;;;;5.50;1.50;;;7.50;99.90;;;;;;4990684;28;20422;-56
2022/04/09 11:10:35;;;;;;;3.08;1.63;;;7.70;99.90;;;;;;4990550;28;20023;-53
2022/04/09 11:13:01;;;;;;;4.93;1.38;;;7.90;99.90;;;;;;4990102;28;20077;-51
2022/04/09 11:15:28;;;;;;;3.72;1.33;;;7.80;99.90;;;;;;4990678;28;20477;-55
2022/04/09 11:18:02;;;;;;;7.05;1.23;;;7.70;99.90;;;;;;4990395;28;20460;-53
2022/04/09 11:20:32;;;;;;;6.65;1.75;;;7.80;99.90;;;;;;4990630;28;20607;-53
2022/04/09 11:23:08;;;;;;;2.95;1.52;;;8.00;99.90;;;;;;4990177;28;20085;-54
2022/04/09 11:25:33;;;;;;;5.07;0.98;;;8.10;99.90;;;;;;4990774;28;20097;-56
2022/04/09 11:28:06;;;;;;;3.28;0.95;;;8.00;99.90;;;;;;4990256;28;20085;-56
2022/04/09 11:30:32;;;;;;;4.07;1.55;;;7.80;99.90;;;;;;4990622;28;20493;-53
2022/04/09 11:32:57;;;;;;;5.45;1.58;;;7.70;99.90;;;;;;4990328;28;20041;-51
2022/04/09 11:35:24;;;;;;;6.57;1.13;;;7.80;99.90;;;;;;4989843;28;20029;-53
2022/04/09 11:37:51;;;;;;;3.58;1.27;;;7.90;99.90;;;;;;4990034;28;20029;-53
2022/04/09 11:40:19;;;;;;;4.38;0.85;;;7.50;99.90;;;;;;4989812;28;20124;-54
2022/04/09 11:42:47;;;;;;;2.47;0.95;;;7.10;99.90;;;;;;4988276;28;20026;-54
2022/04/09 11:45:23;;;;;;;4.60;0.60;;;6.90;99.90;;;;;;4985873;28;20019;-56
2022/04/09 11:47:50;;;;;;;7.03;1.60;;;6.90;99.90;;;;;;4989937;28;20041;-55
2022/04/09 11:50:16;;;;;;;5.15;1.65;;;7.00;99.90;;;;;;4988719;28;20033;-54
2022/04/09 11:52:42;;;;;;;6.97;1.55;;;7.00;99.90;;;;;;4991260;28;20073;-54
2022/04/09 11:55:13;;;;;;;3.63;1.67;;;7.10;99.90;;;;;;4996013;28;20096;-57
2022/04/09 11:57:39;;;;;;;5.20;1.55;;;7.20;99.90;;;;;;4989549;28;20133;-54
2022/04/09 12:00:09;;;;;;;2.67;1.05;;;7.30;99.90;;;;;;4989166;28;20484;-57
2022/04/09 12:02:36;;;;;;;13.40;2.80;;;7.50;99.90;;;;;;4989805;28;20098;-53
2022/04/09 12:05:02;;;;;;;4.95;1.95;;;7.60;99.90;;;;;;4989029;28;20523;-54
2022/04/09 12:07:28;;;;;;;4.15;1.75;;;7.70;99.90;;;;;;4989754;28;20570;-57
2022/04/09 12:09:54;;;;;;;6.10;2.35;;;7.80;99.90;;;;;;4989876;28;20029;-51
2022/04/09 12:12:20;;;;;;;5.95;1.67;;;7.80;99.90;;;;;;4992492;28;20029;-56
2022/04/09 12:14:54;;;;;;;3.88;1.45;;;7.80;99.90;;;;;;4993527;28;20100;-55
2022/04/09 12:17:22;;;;;;;2.58;1.33;;;7.80;99.90;;;;;;4993621;28;20034;-55
2022/04/09 12:19:49;;;;;;;10.57;3.20;;;8.00;99.90;;;;;;4993753;28;20437;-53
2022/04/09 12:22:17;;;;;;;9.98;2.00;;;8.10;99.90;;;;;;4993444;28;20485;-54
2022/04/09 12:24:56;;;;;;;9.25;2.33;;;8.10;99.90;;;;;;4993259;28;20018;-54
2022/04/09 12:27:45;;;;;;;6.82;1.75;;;7.70;99.90;;;;;;4992870;28;20433;-54
2022/04/09 12:30:12;;;;;;;5.15;1.40;;;7.10;99.90;;;;;;4993261;28;20110;-53
2022/04/09 12:32:41;;;;;;;11.05;2.60;;;6.70;99.90;;;;;;4992975;28;20456;-54
2022/04/09 12:35:09;;;;;;;4.85;1.88;;;6.70;99.90;;;;;;4992461;28;20022;-55
2022/04/09 12:37:50;;;;;;;8.52;2.38;;;6.90;99.90;;;;;;4992952;28;20037;-55
2022/04/09 12:40:24;;;;;;;7.60;2.50;;;7.10;99.90;;;;;;4991780;28;20023;-51
2022/04/09 12:42:49;;;;;;;10.63;2.83;;;7.30;99.90;;;;;;4992918;28;20026;-53
2022/04/09 12:45:16;;;;;;;7.00;1.95;;;7.40;99.90;;;;;;4994102;28;20373;-53
2022/04/09 12:47:51;;;;;;;7.35;2.33;;;7.30;99.90;;;;;;5012889;28;20026;-52
2022/04/09 12:50:28;;;;;;;10.27;2.20;;;7.10;99.90;;;;;;5011312;28;20080;-53
2022/04/09 12:52:56;;;;;;;7.35;2.17;;;6.80;99.90;;;;;;5012482;28;20061;-55
2022/04/09 12:55:23;;;;;;;7.07;2.13;;;6.40;99.90;;;;;;5012410;28;20614;-52